LTBI/ESK METAR and TAF weather

Enter ICAO airport designator
Station Type Date Time Source
LTBI METAR 2019/05/19 19:50 UTC NOAA

LTBI 191950Z 25004KT CAVOK 16/13 Q1015 NOSIG RMK RWY08 26006KT


Station Type Date Time Source
LTBI Decoded METAR 2019/05/19 19:50 UTC NOAA

Eskisehir, Turkey (LTBI) 39-47N 030-34E 785M
May 19, 2019 - 03:50 PM EDT / 2019.05.19 1950 UTC
Wind: from the WSW (250 degrees) at 5 MPH (4 KT):0
Visibility: greater than 7 mile(s):0
Temperature: 60 F (16 C)
Dew Point: 55 F (13 C)
Relative Humidity: 82%
Pressure (altimeter): 29.97 in. Hg (1015 hPa)
ob: LTBI 191950Z 25004KT CAVOK 16/13 Q1015 NOSIG RMK RWY08 26006KT
cycle: 20

Station Type Date Time Source
LTBI TAF 2012/05/11 09:09 UTC NOAA

TAF LTBI 110740Z 1109/1121 VRB02KT 6000 -SHRA BKN030 BKN090
TEMPO 1112/1116 33015KT 4000 -TSRA FEW025CB BKN030

Example: see airport list